Avon Lake, Ohio
Current Conditions -  °F | °C
As of 8:51 AM on Thursday 30 Oct 2014 (Local Time) from KCLE Reporting Station
Overcast Overcast  
Wind Chill: 38°   Ceiling: 3000
Heat Index: 42°   Visibility: 10mi
Dew Point: 40°   Wind: 6mph
Humidity: 92%   Direction: NA
Pressure: 30.15"   Gusts: NA
Location:  41.51°N, 82.02°W
Report Text: KCLE 301251Z VRB05KT 10SM SCT025 OVC030 06/05 A3015 RMK AO2 RAE04 SLP212 T00560044 PNO $
Loading
Personal Weather Stations






























Interactive Weather Map New forecast layout! Learn more

10-Day Weather Forecast

Advertisements
Track Severe Weather on mobile